createdAt,value
2023-03-07T00:00:24.074Z,12.70
2023-03-07T00:03:13.466Z,13.10
2023-03-07T00:05:42.438Z,13.20
2023-03-07T00:08:11.580Z,11.30
2023-03-07T00:10:39.708Z,9.80
2023-03-07T00:13:09.035Z,13.00
2023-03-07T00:15:38.632Z,11.60
2023-03-07T00:18:07.555Z,10.10
2023-03-07T00:20:35.710Z,10.80
2023-03-07T00:23:05.104Z,10.90
2023-03-07T00:25:33.663Z,12.60
2023-03-07T00:28:01.617Z,12.80
2023-03-07T00:30:29.676Z,11.80
2023-03-07T00:32:57.642Z,11.80
2023-03-07T00:35:25.768Z,9.40
2023-03-07T00:37:53.861Z,12.00
2023-03-07T00:40:21.843Z,10.70
2023-03-07T00:42:49.919Z,11.20
2023-03-07T00:45:17.831Z,10.20
2023-03-07T00:47:45.875Z,8.70
2023-03-07T00:50:14.123Z,9.70
2023-03-07T00:52:42.051Z,9.10
2023-03-07T00:55:10.355Z,9.20
2023-03-07T00:57:39.456Z,8.20
2023-03-07T01:00:09.207Z,7.50
2023-03-07T01:02:37.333Z,7.40
2023-03-07T01:05:06.327Z,9.80
2023-03-07T01:07:35.083Z,10.50
2023-03-07T01:10:03.720Z,7.60
2023-03-07T01:12:31.744Z,9.00
2023-03-07T01:14:59.679Z,7.20
2023-03-07T01:17:27.734Z,7.30
2023-03-07T01:19:55.934Z,7.20
2023-03-07T01:22:24.054Z,7.40
2023-03-07T01:24:52.929Z,6.80
2023-03-07T01:27:21.306Z,6.70
2023-03-07T01:29:49.833Z,7.20
2023-03-07T01:32:18.048Z,6.10
2023-03-07T01:34:46.063Z,6.80
2023-03-07T01:37:14.608Z,7.10
2023-03-07T01:39:43.216Z,8.20
2023-03-07T01:42:15.575Z,8.40
2023-03-07T01:45:04.935Z,8.70
2023-03-07T01:47:47.399Z,7.70
2023-03-07T01:50:18.053Z,7.70
2023-03-07T01:52:50.573Z,8.20
2023-03-07T01:55:23.111Z,8.50
2023-03-07T01:57:56.412Z,9.00
2023-03-07T02:00:30.892Z,8.20
2023-03-07T02:03:11.064Z,8.50
2023-03-07T02:06:04.205Z,7.80
2023-03-07T02:08:35.518Z,7.50
2023-03-07T02:11:04.865Z,10.70
2023-03-07T02:13:33.116Z,8.50
2023-03-07T02:16:02.777Z,7.90
2023-03-07T02:18:33.909Z,7.30
2023-03-07T02:21:14.302Z,7.30
2023-03-07T02:24:19.931Z,7.70
2023-03-07T02:26:51.377Z,8.30
2023-03-07T02:29:20.028Z,8.10
2023-03-07T02:31:48.071Z,7.70
2023-03-07T02:34:28.240Z,9.60
2023-03-07T02:37:32.178Z,10.80
2023-03-07T02:40:06.505Z,9.90
2023-03-07T02:42:39.050Z,8.70
2023-03-07T02:45:14.413Z,9.00
2023-03-07T02:47:45.622Z,9.40
2023-03-07T02:50:16.967Z,10.50
2023-03-07T02:52:47.241Z,12.20
2023-03-07T02:55:16.382Z,11.20
2023-03-07T02:57:49.217Z,13.10
2023-03-07T03:04:39.705Z,14.90
2023-03-07T03:07:07.974Z,16.40
2023-03-07T03:09:36.787Z,16.80
2023-03-07T03:12:05.561Z,14.90
2023-03-07T03:14:34.586Z,18.60
2023-03-07T03:17:03.941Z,16.20
2023-03-07T03:19:31.964Z,14.80
2023-03-07T03:22:00.241Z,8.90
2023-03-07T03:24:28.893Z,8.70
2023-03-07T03:26:58.180Z,8.20
2023-03-07T03:29:27.468Z,10.00
2023-03-07T03:31:58.266Z,8.20
2023-03-07T03:34:26.559Z,7.80
2023-03-07T03:36:54.637Z,7.80
2023-03-07T03:39:22.699Z,7.10
2023-03-07T03:41:54.830Z,8.00
2023-03-07T03:44:23.953Z,7.60
2023-03-07T03:46:52.219Z,7.90
2023-03-07T03:49:21.446Z,7.90
2023-03-07T03:51:50.975Z,9.00
2023-03-07T03:54:19.595Z,7.50
2023-03-07T03:56:47.685Z,8.20
2023-03-07T03:59:15.665Z,7.70
2023-03-07T04:01:44.096Z,9.40
2023-03-07T04:04:12.803Z,15.30
2023-03-07T04:06:42.697Z,13.00
2023-03-07T04:09:10.902Z,15.10
2023-03-07T04:11:42.237Z,21.60
2023-03-07T04:14:10.781Z,26.80
2023-03-07T04:16:38.807Z,31.50
2023-03-07T04:19:07.040Z,33.70
2023-03-07T04:21:36.830Z,30.00
2023-03-07T04:24:05.320Z,29.70
2023-03-07T04:26:37.311Z,33.80
2023-03-07T04:29:05.450Z,27.50
2023-03-07T04:31:41.305Z,29.40
2023-03-07T04:34:11.503Z,30.70
2023-03-07T04:36:39.470Z,28.70
2023-03-07T04:39:07.524Z,31.70
2023-03-07T04:41:36.294Z,31.50
2023-03-07T04:44:09.090Z,29.40
2023-03-07T04:46:37.111Z,28.90
2023-03-07T04:49:05.560Z,29.80
2023-03-07T04:51:34.126Z,31.50
2023-03-07T04:54:02.212Z,37.50
2023-03-07T04:56:30.270Z,38.30
2023-03-07T04:58:58.925Z,47.10
2023-03-07T05:01:27.010Z,38.90
2023-03-07T05:03:55.269Z,37.20
2023-03-07T05:06:23.438Z,41.60
2023-03-07T05:08:52.211Z,44.20
2023-03-07T05:11:20.793Z,40.00
2023-03-07T05:13:49.834Z,46.00
2023-03-07T05:16:20.809Z,45.10
2023-03-07T05:18:49.218Z,47.10
2023-03-07T05:21:17.593Z,43.80
2023-03-07T05:23:46.056Z,43.30
2023-03-07T05:26:14.551Z,43.60
2023-03-07T05:28:42.650Z,45.00
2023-03-07T05:31:10.683Z,45.70
2023-03-07T05:33:42.755Z,43.80
2023-03-07T05:36:11.534Z,43.20
2023-03-07T05:38:40.285Z,42.30
2023-03-07T05:41:08.650Z,37.50
2023-03-07T05:43:37.161Z,45.60
2023-03-07T05:46:05.566Z,35.90
2023-03-07T05:48:34.016Z,38.30
2023-03-07T05:51:02.547Z,39.50
2023-03-07T05:53:31.414Z,40.60
2023-03-07T05:56:00.016Z,39.70
2023-03-07T05:58:28.634Z,37.20
2023-03-07T06:00:56.803Z,42.50
2023-03-07T06:03:25.012Z,39.80
2023-03-07T06:05:53.125Z,40.60
2023-03-07T06:08:21.546Z,39.00
2023-03-07T06:10:54.523Z,48.40
2023-03-07T06:13:24.872Z,41.40
2023-03-07T06:15:54.525Z,40.50
2023-03-07T06:18:24.702Z,37.20
2023-03-07T06:20:58.900Z,38.50
2023-03-07T06:23:29.062Z,36.40
2023-03-07T06:25:58.101Z,30.60
2023-03-07T06:28:27.128Z,36.30
2023-03-07T06:30:55.606Z,36.50
2023-03-07T06:33:24.329Z,36.70
2023-03-07T06:35:52.799Z,32.50
2023-03-07T06:38:21.114Z,40.40
2023-03-07T06:40:56.618Z,35.90
2023-03-07T06:43:24.905Z,36.20
2023-03-07T06:45:53.135Z,32.20
2023-03-07T06:48:22.517Z,34.30
2023-03-07T06:50:50.593Z,33.80
2023-03-07T06:53:19.027Z,31.70
2023-03-07T06:55:51.380Z,30.00
2023-03-07T06:58:19.630Z,33.80
2023-03-07T07:00:47.937Z,28.90
2023-03-07T07:03:18.453Z,15.30
2023-03-07T07:05:46.394Z,13.70
2023-03-07T07:08:15.590Z,11.10
2023-03-07T07:10:43.662Z,13.50
2023-03-07T07:13:12.712Z,11.80
2023-03-07T07:15:41.119Z,9.70
2023-03-07T07:18:13.254Z,12.70
2023-03-07T07:20:41.513Z,10.10
2023-03-07T07:23:10.240Z,9.60
2023-03-07T07:25:39.046Z,8.50
2023-03-07T07:28:07.018Z,10.60
2023-03-07T07:30:34.993Z,8.40
2023-03-07T07:33:03.122Z,11.60
2023-03-07T07:35:31.386Z,9.60
2023-03-07T07:37:59.940Z,9.50
2023-03-07T07:40:28.371Z,8.50
2023-03-07T07:42:56.659Z,8.40
2023-03-07T07:45:47.583Z,8.40
2023-03-07T07:48:19.110Z,9.70
2023-03-07T07:50:47.879Z,12.30
2023-03-07T07:53:18.762Z,11.20
2023-03-07T07:55:49.072Z,14.30
2023-03-07T07:58:17.530Z,9.30
2023-03-07T08:00:46.257Z,9.50
2023-03-07T08:03:14.474Z,9.50
2023-03-07T08:05:48.386Z,9.30
2023-03-07T08:08:19.752Z,9.10
2023-03-07T08:10:48.776Z,10.60
2023-03-07T08:13:18.384Z,10.40
2023-03-07T08:15:46.571Z,12.80
2023-03-07T08:18:14.751Z,9.60
2023-03-07T08:20:42.739Z,12.10
2023-03-07T08:23:10.757Z,9.10
2023-03-07T08:25:38.811Z,10.60
2023-03-07T08:28:06.796Z,10.70
2023-03-07T08:30:35.976Z,10.90
2023-03-07T08:33:04.200Z,11.20
2023-03-07T08:35:32.428Z,10.50
2023-03-07T08:38:00.717Z,11.30
2023-03-07T08:40:30.643Z,10.70
2023-03-07T08:42:59.980Z,11.40
2023-03-07T08:45:28.405Z,11.90
2023-03-07T08:47:57.440Z,9.30
2023-03-07T08:50:27.903Z,10.60
2023-03-07T08:52:57.685Z,9.60
2023-03-07T08:55:25.586Z,8.40
2023-03-07T08:57:53.548Z,13.50
2023-03-07T09:00:21.649Z,10.60
2023-03-07T09:02:49.629Z,9.20
2023-03-07T09:05:17.720Z,10.10
2023-03-07T09:07:45.939Z,14.30
2023-03-07T09:10:13.937Z,10.60
2023-03-07T09:12:41.909Z,9.80
2023-03-07T09:15:10.460Z,11.10
2023-03-07T09:17:38.508Z,14.10
2023-03-07T09:20:08.980Z,13.80
2023-03-07T09:22:36.870Z,9.70
2023-03-07T09:25:05.329Z,10.10
2023-03-07T09:27:33.406Z,8.50
2023-03-07T09:30:01.350Z,8.90
2023-03-07T09:32:29.379Z,10.00
2023-03-07T09:34:57.384Z,8.00
2023-03-07T09:37:25.442Z,12.70
2023-03-07T09:39:53.418Z,8.80
2023-03-07T09:42:34.935Z,9.00
2023-03-07T09:45:15.101Z,9.50
2023-03-07T09:47:55.245Z,6.60
2023-03-07T09:50:49.079Z,7.00
2023-03-07T09:53:45.228Z,7.40
2023-03-07T09:56:20.113Z,8.80
2023-03-07T09:58:55.589Z,6.40
2023-03-07T10:01:29.048Z,7.20
2023-03-07T10:04:05.572Z,7.90
2023-03-07T10:06:42.851Z,6.10
2023-03-07T10:09:22.407Z,6.70
2023-03-07T10:11:59.438Z,6.40
2023-03-07T10:14:58.219Z,6.10
2023-03-07T10:17:53.008Z,5.00
2023-03-07T10:20:48.995Z,5.50
2023-03-07T10:23:26.080Z,4.30
2023-03-07T10:26:01.192Z,8.30
2023-03-07T10:28:32.685Z,4.50
2023-03-07T10:31:19.176Z,5.70
2023-03-07T10:33:49.593Z,4.60
2023-03-07T10:36:30.608Z,6.10
2023-03-07T10:39:27.414Z,15.30
2023-03-07T10:41:55.707Z,10.20
2023-03-07T10:44:24.661Z,5.10
2023-03-07T10:46:57.644Z,5.90
2023-03-07T10:49:31.731Z,4.80
2023-03-07T10:52:18.141Z,7.70
2023-03-07T10:54:46.091Z,7.50
2023-03-07T10:57:16.862Z,4.90
2023-03-07T10:59:50.185Z,11.90
2023-03-07T11:02:47.013Z,7.00
2023-03-07T11:05:24.056Z,6.20
2023-03-07T11:07:52.316Z,5.50
2023-03-07T11:10:25.925Z,4.70
2023-03-07T11:12:55.936Z,4.40
2023-03-07T11:15:24.885Z,5.50
2023-03-07T11:17:53.599Z,5.00
2023-03-07T11:20:30.448Z,4.00
2023-03-07T11:23:31.954Z,4.20
2023-03-07T11:26:22.059Z,4.50
2023-03-07T11:29:08.392Z,4.10
2023-03-07T11:31:56.876Z,6.30
2023-03-07T11:34:43.952Z,5.10
2023-03-07T11:37:36.327Z,4.90
2023-03-07T11:40:31.608Z,4.70
2023-03-07T11:43:06.165Z,9.00
2023-03-07T11:45:43.457Z,7.40
2023-03-07T11:49:07.432Z,4.20
2023-03-07T11:51:50.300Z,4.60
2023-03-07T11:54:36.061Z,5.30
2023-03-07T11:57:18.895Z,4.40
2023-03-07T12:00:02.822Z,11.50
2023-03-07T12:03:08.313Z,8.30
2023-03-07T12:05:41.166Z,5.50
2023-03-07T12:08:37.448Z,5.80
2023-03-07T12:11:19.148Z,5.90
2023-03-07T12:14:00.046Z,5.10
2023-03-07T12:16:50.131Z,149.70
2023-03-07T12:19:57.237Z,323.10
2023-03-07T12:22:29.158Z,46.80
2023-03-07T12:25:21.941Z,3.70
2023-03-07T12:27:54.405Z,3.20
2023-03-07T12:30:28.196Z,5.00
2023-03-07T12:32:56.718Z,4.70
2023-03-07T12:35:42.945Z,12.30
2023-03-07T12:38:36.650Z,5.30
2023-03-07T12:41:24.618Z,5.90
2023-03-07T12:44:00.766Z,7.90
2023-03-07T12:46:51.405Z,13.00
2023-03-07T12:50:18.153Z,8.60
2023-03-07T12:52:56.276Z,13.80
2023-03-07T12:55:34.776Z,11.60
2023-03-07T12:58:24.747Z,14.10
2023-03-07T13:01:07.338Z,12.80
2023-03-07T13:03:45.507Z,11.00
2023-03-07T13:06:18.710Z,11.00
2023-03-07T13:08:49.991Z,9.90
2023-03-07T13:11:22.873Z,13.50
2023-03-07T13:13:54.140Z,9.30
2023-03-07T13:16:42.021Z,10.50
2023-03-07T13:19:35.299Z,9.50
2023-03-07T13:22:23.527Z,9.50
2023-03-07T13:25:18.224Z,9.40
2023-03-07T13:27:49.126Z,10.40
2023-03-07T13:30:25.196Z,8.70
2023-03-07T13:32:55.647Z,9.90
2023-03-07T13:35:33.513Z,9.20
2023-03-07T13:38:14.945Z,9.90
2023-03-07T13:40:48.721Z,11.00
2023-03-07T13:43:19.884Z,11.20
2023-03-07T13:45:54.966Z,11.00
2023-03-07T13:48:29.985Z,11.90
2023-03-07T13:51:00.967Z,18.40
2023-03-07T13:53:31.672Z,12.50
2023-03-07T13:56:20.133Z,10.90
2023-03-07T13:59:09.920Z,9.70
2023-03-07T14:01:44.399Z,9.10
2023-03-07T14:04:33.166Z,10.90
2023-03-07T14:07:25.748Z,12.00
2023-03-07T14:10:05.415Z,9.90
2023-03-07T14:12:55.403Z,9.90
2023-03-07T14:16:17.898Z,9.70
2023-03-07T14:19:10.390Z,12.10
2023-03-07T14:21:52.729Z,10.80
2023-03-07T14:24:50.942Z,10.60
2023-03-07T14:27:18.986Z,7.60
2023-03-07T14:29:57.047Z,8.90
2023-03-07T14:32:29.565Z,8.30
2023-03-07T14:34:58.758Z,8.30
2023-03-07T14:37:29.522Z,8.00
2023-03-07T14:40:08.711Z,8.00
2023-03-07T14:42:42.391Z,10.20
2023-03-07T14:45:20.412Z,12.30
2023-03-07T14:48:00.904Z,12.00
2023-03-07T15:00:29.053Z,11.60
2023-03-07T15:49:42.526Z,20.00
2023-03-07T15:52:51.549Z,23.70
2023-03-07T15:55:23.907Z,19.30
2023-03-07T15:57:56.006Z,17.60
2023-03-07T16:00:26.805Z,20.80
2023-03-07T16:03:19.316Z,20.20
2023-03-07T16:05:47.639Z,21.20
2023-03-07T16:08:17.956Z,21.50
2023-03-07T16:11:02.699Z,16.60
2023-03-07T16:13:40.485Z,14.30
2023-03-07T16:16:18.610Z,17.70
2023-03-07T16:18:47.093Z,14.20
2023-03-07T16:21:16.509Z,16.20
2023-03-07T16:23:45.738Z,14.00
2023-03-07T16:26:17.542Z,14.90
2023-03-07T16:28:45.739Z,16.20
2023-03-07T16:31:16.717Z,18.70
2023-03-07T16:33:46.093Z,23.30
2023-03-07T16:36:15.520Z,18.80
2023-03-07T16:38:44.151Z,17.30
2023-03-07T16:41:17.866Z,69.00
2023-03-07T16:43:51.770Z,54.90
2023-03-07T16:46:21.062Z,27.10
2023-03-07T16:48:49.023Z,28.20
2023-03-07T16:51:21.125Z,25.40
2023-03-07T16:53:50.622Z,24.80
2023-03-07T16:56:18.883Z,20.90
2023-03-07T16:58:46.917Z,21.40
2023-03-07T17:01:15.358Z,18.30
2023-03-07T17:03:43.360Z,22.70
2023-03-07T17:06:16.665Z,29.60
2023-03-07T17:08:45.326Z,23.20
2023-03-07T17:11:19.857Z,25.10
2023-03-07T17:13:52.010Z,23.50
2023-03-07T17:16:20.888Z,28.00
2023-03-07T17:18:48.877Z,33.80
2023-03-07T17:21:20.151Z,36.30
2023-03-07T17:23:49.679Z,30.50
2023-03-07T17:26:38.596Z,32.20
2023-03-07T17:29:14.099Z,36.30
2023-03-07T17:31:42.199Z,26.50
2023-03-07T17:34:31.648Z,26.20
2023-03-07T17:37:00.544Z,19.90
2023-03-07T17:39:30.068Z,19.20
2023-03-07T17:41:59.160Z,17.30
2023-03-07T17:44:28.545Z,19.10
2023-03-07T17:46:57.290Z,20.70
2023-03-07T17:49:31.630Z,20.00
2023-03-07T17:51:59.617Z,18.00
2023-03-07T17:54:27.795Z,20.90
2023-03-07T17:56:55.800Z,18.30
2023-03-07T17:59:23.966Z,27.80
2023-03-07T18:01:52.133Z,29.70
2023-03-07T18:04:21.207Z,26.30
2023-03-07T18:06:49.984Z,20.80
2023-03-07T18:09:18.805Z,25.20
2023-03-07T18:11:46.949Z,30.60
2023-03-07T18:14:15.361Z,25.70
2023-03-07T18:16:44.471Z,25.80
2023-03-07T18:19:25.252Z,33.70
2023-03-07T18:21:55.363Z,26.50
2023-03-07T18:24:29.996Z,29.20
2023-03-07T18:26:59.659Z,28.60
2023-03-07T18:29:29.017Z,31.50
2023-03-07T18:31:57.380Z,27.20
2023-03-07T18:34:26.046Z,29.10
2023-03-07T18:36:54.408Z,44.60
2023-03-07T18:39:23.697Z,43.10
2023-03-07T18:41:51.872Z,37.40
2023-03-07T18:44:20.126Z,30.30
2023-03-07T18:46:48.082Z,25.00
2023-03-07T18:49:16.354Z,24.60
2023-03-07T18:51:46.139Z,29.50
2023-03-07T18:54:14.594Z,27.50
2023-03-07T18:56:46.857Z,27.30
2023-03-07T18:59:15.390Z,22.50
2023-03-07T19:01:44.300Z,25.00
2023-03-07T19:04:12.196Z,20.90
2023-03-07T19:06:44.656Z,18.80
2023-03-07T19:09:16.268Z,21.30
2023-03-07T19:11:44.498Z,21.00
2023-03-07T19:14:12.564Z,21.40
2023-03-07T19:16:41.164Z,23.90
2023-03-07T19:19:09.142Z,35.20
2023-03-07T19:21:37.221Z,40.30
2023-03-07T19:24:08.004Z,44.90
2023-03-07T19:26:36.100Z,53.70
2023-03-07T19:29:04.283Z,56.70
2023-03-07T19:31:33.399Z,58.90
2023-03-07T19:34:03.323Z,68.60
2023-03-07T19:36:35.382Z,56.50
2023-03-07T19:39:04.981Z,71.30
2023-03-07T19:41:33.045Z,72.90
2023-03-07T19:44:03.553Z,66.30
2023-03-07T19:46:31.508Z,25.00
2023-03-07T19:48:59.464Z,27.30
2023-03-07T19:51:27.860Z,24.10
2023-03-07T19:53:57.508Z,24.20
2023-03-07T19:56:28.931Z,25.00
2023-03-07T19:58:58.931Z,27.20
2023-03-07T20:01:29.437Z,29.90
2023-03-07T20:03:58.353Z,26.00
2023-03-07T20:06:29.950Z,26.50
2023-03-07T20:08:59.895Z,26.70
2023-03-07T20:11:33.257Z,26.60
2023-03-07T20:14:04.954Z,26.30
2023-03-07T20:16:34.728Z,28.50
2023-03-07T20:19:06.189Z,26.20
2023-03-07T20:21:36.552Z,30.50
2023-03-07T20:24:05.262Z,35.40
2023-03-07T20:26:36.521Z,35.60
2023-03-07T20:29:06.562Z,35.60
2023-03-07T20:31:36.283Z,37.50
2023-03-07T20:34:04.313Z,34.10
2023-03-07T20:36:35.237Z,36.90
2023-03-07T20:39:07.903Z,38.10
2023-03-07T20:41:36.055Z,38.70
2023-03-07T20:44:06.542Z,37.40
2023-03-07T20:46:36.043Z,41.80
2023-03-07T20:49:04.833Z,43.30
2023-03-07T20:51:35.316Z,39.80
2023-03-07T20:54:10.391Z,43.90
2023-03-07T20:56:40.099Z,36.50
2023-03-07T20:59:10.517Z,40.80
2023-03-07T21:01:39.100Z,37.00
2023-03-07T21:04:11.384Z,37.10
2023-03-07T21:06:42.449Z,37.50
2023-03-07T21:09:12.650Z,37.10
2023-03-07T21:11:47.615Z,37.60
2023-03-07T21:14:18.164Z,39.90
2023-03-07T21:16:46.804Z,35.50
2023-03-07T21:19:15.066Z,36.90
2023-03-07T21:21:43.246Z,36.10
2023-03-07T21:24:12.851Z,35.50
2023-03-07T21:26:41.289Z,34.80
2023-03-07T21:29:11.310Z,30.90
2023-03-07T21:31:39.477Z,31.70
2023-03-07T21:34:11.930Z,26.40
2023-03-07T21:36:40.382Z,29.10
2023-03-07T21:39:10.020Z,35.00
2023-03-07T21:41:38.247Z,47.70
2023-03-07T21:44:06.444Z,38.50
2023-03-07T21:46:34.575Z,32.00
2023-03-07T21:49:03.339Z,33.50
2023-03-07T21:51:31.474Z,34.30
2023-03-07T21:53:59.778Z,35.30
2023-03-07T21:56:27.981Z,36.80
2023-03-07T21:58:56.196Z,36.90
2023-03-07T22:01:28.049Z,30.70
2023-03-07T22:03:58.327Z,23.70
2023-03-07T22:06:28.049Z,20.10
2023-03-07T22:08:56.170Z,17.50
2023-03-07T22:11:24.191Z,21.90
2023-03-07T22:13:52.234Z,15.10
2023-03-07T22:16:21.603Z,13.10
2023-03-07T22:18:57.179Z,13.80
2023-03-07T22:21:26.793Z,12.70
2023-03-07T22:24:01.104Z,11.60
2023-03-07T22:26:31.661Z,11.90
2023-03-07T22:28:59.772Z,12.60
2023-03-07T22:31:28.146Z,11.20
2023-03-07T22:33:58.575Z,12.90
2023-03-07T22:36:26.626Z,15.50
2023-03-07T22:38:55.880Z,8.80
2023-03-07T22:41:25.726Z,10.60
2023-03-07T22:43:54.348Z,9.70
2023-03-07T22:46:23.224Z,8.20
2023-03-07T22:48:53.875Z,9.50
2023-03-07T22:51:24.114Z,8.00
2023-03-07T22:53:52.593Z,13.60
2023-03-07T22:56:27.668Z,18.80
2023-03-07T22:58:56.377Z,21.40
2023-03-07T23:01:27.444Z,21.20
2023-03-07T23:03:57.076Z,23.30
2023-03-07T23:06:28.657Z,20.70
2023-03-07T23:08:57.391Z,24.70
2023-03-07T23:11:27.621Z,11.20
2023-03-07T23:13:55.915Z,10.70
2023-03-07T23:16:26.133Z,13.60
2023-03-07T23:18:57.020Z,16.70
2023-03-07T23:21:29.404Z,17.90
2023-03-07T23:23:59.096Z,17.50
2023-03-07T23:26:36.942Z,15.80
2023-03-07T23:29:06.877Z,12.50
2023-03-07T23:31:37.675Z,12.50
2023-03-07T23:34:24.212Z,8.50
2023-03-07T23:36:52.603Z,7.20
2023-03-07T23:39:20.648Z,7.20
2023-03-07T23:41:48.624Z,6.50
2023-03-07T23:44:17.183Z,7.30
2023-03-07T23:46:45.112Z,6.80
2023-03-07T23:49:13.542Z,5.40
2023-03-07T23:51:42.242Z,6.10
2023-03-07T23:54:10.395Z,5.90
2023-03-07T23:56:38.372Z,5.60
2023-03-07T23:59:06.478Z,4.60
